createdAt,value
2023-03-03T00:02:29.154Z,46.45
2023-03-03T00:05:08.532Z,45.47
2023-03-03T00:07:46.672Z,47.75
2023-03-03T00:10:35.593Z,44.25
2023-03-03T00:13:19.229Z,46.17
2023-03-03T00:15:50.019Z,46.67
2023-03-03T00:18:33.150Z,44.03
2023-03-03T00:21:12.827Z,44.65
2023-03-03T00:23:47.672Z,43.45
2023-03-03T00:26:26.131Z,46.45
2023-03-03T00:29:05.471Z,44.20
2023-03-03T00:31:40.871Z,39.65
2023-03-03T00:34:25.034Z,42.42
2023-03-03T00:37:02.570Z,41.10
2023-03-03T00:39:40.875Z,43.33
2023-03-03T00:42:16.812Z,39.63
2023-03-03T00:45:00.560Z,41.90
2023-03-03T00:47:39.365Z,37.53
2023-03-03T00:50:15.368Z,38.13
2023-03-03T00:52:55.171Z,39.15
2023-03-03T00:55:30.372Z,42.03
2023-03-03T00:58:07.699Z,42.40
2023-03-03T01:00:50.926Z,41.20
2023-03-03T01:03:29.249Z,37.40
2023-03-03T01:06:04.361Z,37.95
2023-03-03T01:08:42.322Z,39.75
2023-03-03T01:11:19.381Z,37.10
2023-03-03T01:13:54.209Z,37.80
2023-03-03T01:16:33.288Z,38.97
2023-03-03T01:19:10.086Z,37.70
2023-03-03T01:21:45.516Z,36.13
2023-03-03T01:24:21.273Z,35.78
2023-03-03T01:26:59.016Z,36.78
2023-03-03T01:29:34.275Z,38.65
2023-03-03T01:32:13.422Z,40.23
2023-03-03T01:34:50.658Z,37.15
2023-03-03T01:37:25.888Z,39.38
2023-03-03T01:40:02.313Z,42.33
2023-03-03T01:42:41.101Z,36.60
2023-03-03T01:45:23.219Z,40.30
2023-03-03T01:48:03.094Z,42.15
2023-03-03T01:50:44.408Z,39.55
2023-03-03T01:53:25.014Z,38.40
2023-03-03T01:58:29.989Z,40.05
2023-03-03T02:01:08.548Z,37.80
2023-03-03T02:03:46.457Z,37.20
2023-03-03T02:06:24.392Z,39.03
2023-03-03T02:09:02.912Z,35.35
2023-03-03T02:11:40.163Z,37.03
2023-03-03T02:14:18.370Z,36.70
2023-03-03T02:16:54.133Z,31.13
2023-03-03T02:19:36.319Z,36.40
2023-03-03T02:22:12.115Z,37.17
2023-03-03T02:24:48.397Z,33.83
2023-03-03T02:27:27.282Z,37.03
2023-03-03T02:30:12.784Z,36.05
2023-03-03T02:32:47.077Z,34.25
2023-03-03T02:35:32.218Z,35.70
2023-03-03T02:38:13.920Z,36.60
2023-03-03T02:40:53.287Z,35.20
2023-03-03T02:43:33.569Z,36.95
2023-03-03T02:46:08.513Z,38.57
2023-03-03T02:48:43.686Z,40.72
2023-03-03T02:51:22.225Z,38.93
2023-03-03T02:53:58.668Z,36.95
2023-03-03T02:56:36.992Z,37.40
2023-03-03T02:59:15.776Z,36.10
2023-03-03T03:01:56.384Z,38.00
2023-03-03T03:04:32.195Z,38.47
2023-03-03T03:07:09.914Z,37.63
2023-03-03T03:09:44.908Z,36.38
2023-03-03T03:12:21.951Z,34.97
2023-03-03T03:15:06.318Z,35.50
2023-03-03T03:17:45.529Z,35.50
2023-03-03T03:20:20.129Z,36.63
2023-03-03T03:23:00.601Z,34.37
2023-03-03T03:25:36.129Z,33.63
2023-03-03T03:28:16.451Z,36.35
2023-03-03T03:30:55.204Z,36.95
2023-03-03T03:33:31.754Z,35.00
2023-03-03T03:38:46.482Z,33.83
2023-03-03T03:41:20.188Z,34.85
2023-03-03T03:43:58.044Z,34.40
2023-03-03T03:46:39.420Z,34.00
2023-03-03T03:49:20.931Z,35.70
2023-03-03T03:51:58.423Z,34.22
2023-03-03T03:54:39.182Z,32.50
2023-03-03T03:57:16.853Z,34.63
2023-03-03T03:59:53.794Z,33.60
2023-03-03T04:05:07.652Z,28.45
2023-03-03T04:07:43.257Z,30.42
2023-03-03T04:10:21.279Z,29.90
2023-03-03T04:12:57.380Z,28.25
2023-03-03T04:15:33.452Z,25.65
2023-03-03T04:18:16.635Z,24.37
2023-03-03T04:20:54.957Z,24.35
2023-03-03T04:23:33.424Z,20.40
2023-03-03T04:26:10.911Z,20.77
2023-03-03T04:28:47.492Z,20.95
2023-03-03T04:31:24.024Z,21.10
2023-03-03T04:34:02.715Z,22.42
2023-03-03T04:36:38.767Z,20.67
2023-03-03T04:39:14.220Z,20.90
2023-03-03T04:41:54.986Z,22.45
2023-03-03T04:44:29.471Z,21.20
2023-03-03T04:47:07.392Z,22.80
2023-03-03T04:49:45.635Z,21.85
2023-03-03T04:52:22.143Z,21.27
2023-03-03T04:57:35.736Z,20.35
2023-03-03T05:00:18.864Z,20.40
2023-03-03T05:02:53.984Z,18.80
2023-03-03T05:05:31.814Z,18.40
2023-03-03T05:08:07.388Z,15.93
2023-03-03T05:10:46.322Z,17.88
2023-03-03T05:13:24.255Z,17.73
2023-03-03T05:16:00.147Z,17.23
2023-03-03T05:18:35.421Z,16.33
2023-03-03T05:21:13.356Z,16.10
2023-03-03T05:23:49.217Z,15.00
2023-03-03T05:26:25.473Z,13.18
2023-03-03T05:29:03.196Z,13.13
2023-03-03T05:31:45.555Z,13.38
2023-03-03T05:34:21.957Z,14.77
2023-03-03T05:37:00.634Z,13.75
2023-03-03T05:39:39.167Z,13.85
2023-03-03T05:42:17.815Z,12.43
2023-03-03T05:44:55.182Z,13.00
2023-03-03T05:47:31.003Z,12.57
2023-03-03T05:50:08.703Z,12.55
2023-03-03T05:52:51.307Z,12.37
2023-03-03T05:55:29.273Z,13.05
2023-03-03T05:58:08.091Z,13.07
2023-03-03T06:00:46.820Z,14.00
2023-03-03T06:03:22.042Z,13.75
2023-03-03T06:05:59.157Z,14.70
2023-03-03T06:08:37.996Z,13.47
2023-03-03T06:11:13.963Z,13.15
2023-03-03T06:16:28.165Z,13.00
2023-03-03T06:19:04.531Z,15.38
2023-03-03T06:21:42.625Z,16.35
2023-03-03T06:24:21.970Z,17.40
2023-03-03T06:27:01.142Z,18.07
2023-03-03T06:29:35.066Z,19.25
2023-03-03T06:32:10.566Z,17.23
2023-03-03T06:34:50.339Z,18.70
2023-03-03T06:37:25.969Z,17.13
2023-03-03T06:40:07.396Z,17.95
2023-03-03T06:42:46.876Z,18.80
2023-03-03T06:45:22.475Z,16.70
2023-03-03T06:47:59.662Z,17.70
2023-03-03T06:50:36.698Z,17.60
2023-03-03T06:53:14.876Z,17.35
2023-03-03T06:55:49.217Z,18.38
2023-03-03T06:58:27.906Z,18.88
2023-03-03T07:01:04.911Z,17.42
2023-03-03T07:03:42.594Z,18.95
2023-03-03T07:06:23.184Z,19.73
2023-03-03T07:09:01.318Z,17.25
2023-03-03T07:11:42.430Z,16.75
2023-03-03T07:14:22.909Z,17.45
2023-03-03T07:17:02.101Z,17.35
2023-03-03T07:19:41.842Z,16.77
2023-03-03T07:22:16.692Z,17.95
2023-03-03T07:24:53.342Z,19.40
2023-03-03T07:27:29.299Z,16.30
2023-03-03T07:30:21.287Z,14.67
2023-03-03T07:32:57.756Z,14.90
2023-03-03T07:35:41.949Z,13.45
2023-03-03T07:38:38.956Z,15.20
2023-03-03T07:41:17.345Z,12.85
2023-03-03T07:43:55.371Z,16.38
2023-03-03T07:46:34.375Z,16.70
2023-03-03T07:49:20.858Z,18.65
2023-03-03T07:51:57.977Z,19.75
2023-03-03T07:54:40.701Z,20.05
2023-03-03T07:57:19.345Z,19.30
2023-03-03T07:59:57.029Z,18.95
2023-03-03T08:02:46.985Z,19.55
2023-03-03T08:05:34.423Z,20.37
2023-03-03T08:08:34.766Z,19.38
2023-03-03T08:11:32.783Z,18.48
2023-03-03T08:14:12.981Z,19.83
2023-03-03T08:16:48.732Z,19.33
2023-03-03T08:19:20.377Z,18.15
2023-03-03T08:22:05.574Z,22.40
2023-03-03T08:24:46.667Z,19.00
2023-03-03T08:27:24.520Z,17.92
2023-03-03T08:30:03.172Z,18.50
2023-03-03T08:32:40.827Z,17.17
2023-03-03T08:35:19.257Z,18.17
2023-03-03T08:37:59.087Z,17.60
2023-03-03T08:40:35.550Z,17.02
2023-03-03T08:43:14.851Z,18.60
2023-03-03T08:45:52.789Z,20.17
2023-03-03T08:48:29.045Z,19.60
2023-03-03T08:51:08.722Z,20.03
2023-03-03T08:53:45.964Z,19.55
2023-03-03T08:56:24.422Z,20.35
2023-03-03T08:59:03.671Z,21.45
2023-03-03T09:01:40.807Z,21.80
2023-03-03T09:04:18.255Z,23.60
2023-03-03T09:06:55.372Z,22.55
2023-03-03T09:09:38.028Z,22.90
2023-03-03T09:12:12.919Z,23.40
2023-03-03T09:14:50.170Z,25.15
2023-03-03T09:17:30.126Z,24.35
2023-03-03T09:20:21.691Z,25.77
2023-03-03T09:22:57.825Z,26.00
2023-03-03T09:28:24.661Z,24.20
2023-03-03T09:31:05.272Z,25.20
2023-03-03T09:33:40.260Z,25.10
2023-03-03T09:36:23.568Z,25.50
2023-03-03T09:39:02.506Z,23.45
2023-03-03T09:42:12.631Z,24.45
2023-03-03T09:45:22.065Z,23.20
2023-03-03T09:47:56.525Z,21.90
2023-03-03T09:50:40.087Z,21.90
2023-03-03T09:53:23.074Z,20.48
2023-03-03T09:56:02.549Z,20.35
2023-03-03T09:58:58.761Z,24.80
2023-03-03T10:01:43.471Z,20.70
2023-03-03T10:04:17.974Z,22.65
2023-03-03T10:06:58.914Z,24.05
2023-03-03T10:09:47.823Z,22.75
2023-03-03T10:12:26.069Z,22.92
2023-03-03T10:15:01.570Z,23.85
2023-03-03T10:17:45.328Z,23.83
2023-03-03T10:20:29.505Z,22.38
2023-03-03T10:29:38.645Z,24.08
2023-03-03T10:32:39.365Z,24.40
2023-03-03T10:35:29.160Z,24.80
2023-03-03T10:38:03.270Z,23.30
2023-03-03T10:40:40.084Z,24.73
2023-03-03T10:43:44.913Z,24.20
2023-03-03T10:46:39.378Z,22.63
2023-03-03T10:49:26.977Z,21.88
2023-03-03T10:52:34.329Z,22.23
2023-03-03T10:55:30.222Z,22.27
2023-03-03T11:00:40.733Z,22.30
2023-03-03T11:03:38.114Z,21.90
2023-03-03T11:09:04.869Z,22.75
2023-03-03T11:11:44.178Z,21.40
2023-03-03T11:14:25.466Z,23.75
2023-03-03T11:17:01.566Z,21.70
2023-03-03T11:22:39.396Z,18.55
2023-03-03T11:25:21.849Z,20.92
2023-03-03T11:28:12.461Z,18.45
2023-03-03T11:30:46.655Z,16.77
2023-03-03T11:33:25.162Z,16.23
2023-03-03T11:36:09.399Z,15.60
2023-03-03T11:39:00.952Z,17.35
2023-03-03T11:41:44.410Z,13.90
2023-03-03T11:44:34.135Z,16.80
2023-03-03T11:47:14.348Z,15.65
2023-03-03T11:50:03.746Z,15.10
2023-03-03T11:52:48.060Z,13.85
2023-03-03T11:55:34.218Z,15.35
2023-03-03T12:01:17.054Z,13.98
2023-03-03T12:04:01.596Z,13.60
2023-03-03T12:09:51.113Z,13.65
2023-03-03T12:12:33.799Z,15.25
2023-03-03T12:15:20.345Z,15.05
2023-03-03T12:18:37.555Z,14.18
2023-03-03T12:24:50.516Z,13.18
2023-03-03T12:27:37.979Z,13.87
2023-03-03T12:33:32.223Z,13.70
2023-03-03T12:39:35.453Z,12.17
2023-03-03T12:42:15.620Z,11.55
2023-03-03T12:44:50.776Z,12.70
2023-03-03T12:47:32.044Z,12.00
2023-03-03T12:50:20.301Z,12.32
2023-03-03T12:52:58.077Z,11.00
2023-03-03T12:55:39.961Z,12.85
2023-03-03T12:58:20.971Z,11.32
2023-03-03T13:01:03.927Z,11.50
2023-03-03T13:03:55.284Z,13.05
2023-03-03T13:06:32.293Z,14.05
2023-03-03T13:09:21.254Z,14.57
2023-03-03T13:12:04.355Z,13.93
2023-03-03T13:14:41.824Z,12.18
2023-03-03T13:17:22.232Z,13.05
2023-03-03T13:20:03.976Z,13.02
2023-03-03T13:22:48.197Z,14.32
2023-03-03T13:25:48.083Z,13.75
2023-03-03T13:28:29.516Z,15.10
2023-03-03T13:31:07.088Z,14.25
2023-03-03T13:33:44.324Z,13.77
2023-03-03T13:36:26.629Z,15.98
2023-03-03T13:39:07.595Z,13.23
2023-03-03T13:41:42.111Z,13.85
2023-03-03T13:44:23.392Z,13.48
2023-03-03T13:47:05.973Z,13.50
2023-03-03T13:49:48.244Z,14.13
2023-03-03T13:52:27.979Z,15.10
2023-03-03T13:55:29.717Z,13.65
2023-03-03T13:58:01.366Z,13.48
2023-03-03T14:00:46.678Z,13.23
2023-03-03T14:03:45.111Z,14.95
2023-03-03T14:06:21.326Z,15.30
2023-03-03T14:09:24.118Z,14.07
2023-03-03T14:12:04.119Z,14.13
2023-03-03T14:14:49.731Z,13.45
2023-03-03T14:17:31.318Z,13.75
2023-03-03T14:20:18.765Z,14.10
2023-03-03T14:22:57.697Z,11.95
2023-03-03T14:25:53.005Z,12.13
2023-03-03T14:28:30.016Z,13.30
2023-03-03T14:31:11.273Z,14.02
2023-03-03T14:33:47.839Z,13.82
2023-03-03T14:36:22.561Z,14.55
2023-03-03T14:39:00.152Z,14.93
2023-03-03T14:41:45.870Z,12.95
2023-03-03T14:44:28.956Z,12.27
2023-03-03T14:47:03.380Z,11.20
2023-03-03T14:49:40.673Z,10.10
2023-03-03T14:52:27.537Z,11.05
2023-03-03T14:55:05.472Z,10.93
2023-03-03T14:57:51.622Z,11.50
2023-03-03T15:00:36.690Z,10.57
2023-03-03T15:03:12.072Z,11.25
2023-03-03T15:05:53.268Z,11.55
2023-03-03T15:08:35.051Z,11.18
2023-03-03T15:11:17.883Z,12.17
2023-03-03T15:13:59.324Z,11.73
2023-03-03T15:16:40.368Z,13.10
2023-03-03T15:19:35.436Z,12.25
2023-03-03T15:22:16.307Z,13.80
2023-03-03T15:24:55.812Z,13.32
2023-03-03T15:27:34.563Z,13.57
2023-03-03T15:30:19.461Z,14.13
2023-03-03T15:33:00.458Z,14.52
2023-03-03T15:35:43.969Z,16.17
2023-03-03T15:38:18.594Z,15.68
2023-03-03T15:41:00.293Z,16.10
2023-03-03T15:43:40.101Z,15.80
2023-03-03T15:46:27.404Z,15.15
2023-03-03T15:49:08.444Z,15.57
2023-03-03T15:52:04.394Z,15.80
2023-03-03T15:54:46.696Z,16.65
2023-03-03T15:57:26.251Z,17.20
2023-03-03T16:00:01.014Z,18.08
2023-03-03T16:02:47.296Z,17.38
2023-03-03T16:05:27.030Z,17.83
2023-03-03T16:08:09.188Z,18.05
2023-03-03T16:10:53.720Z,20.00
2023-03-03T16:13:46.130Z,18.17
2023-03-03T16:16:30.054Z,18.73
2023-03-03T16:19:15.414Z,16.23
2023-03-03T16:22:33.960Z,16.80
2023-03-03T16:25:35.370Z,18.65
2023-03-03T16:28:14.722Z,18.25
2023-03-03T16:30:54.632Z,16.55
2023-03-03T16:33:35.727Z,18.00
2023-03-03T16:36:16.585Z,18.35
2023-03-03T16:38:56.038Z,12.90
2023-03-03T16:41:34.180Z,16.75
2023-03-03T16:44:16.199Z,17.47
2023-03-03T16:46:52.405Z,16.38
2023-03-03T16:52:01.460Z,15.43
2023-03-03T16:54:43.236Z,15.57
2023-03-03T16:57:22.486Z,13.30
2023-03-03T17:00:04.049Z,14.25
2023-03-03T17:03:21.993Z,14.57
2023-03-03T17:05:58.353Z,14.38
2023-03-03T17:09:01.368Z,12.82
2023-03-03T17:11:46.404Z,15.33
2023-03-03T17:14:38.899Z,14.77
2023-03-03T17:17:12.584Z,13.82
2023-03-03T17:19:57.547Z,12.85
2023-03-03T17:22:31.139Z,13.50
2023-03-03T17:25:09.322Z,13.60
2023-03-03T17:27:54.213Z,13.45
2023-03-03T17:30:33.817Z,16.52
2023-03-03T17:33:35.859Z,13.30
2023-03-03T17:36:29.646Z,12.40
2023-03-03T17:39:13.624Z,11.25
2023-03-03T17:41:47.684Z,11.40
2023-03-03T17:44:28.715Z,12.02
2023-03-03T17:47:10.841Z,12.27
2023-03-03T17:50:10.722Z,13.10
2023-03-03T17:52:59.269Z,13.20
2023-03-03T17:56:03.977Z,13.60
2023-03-03T17:59:07.540Z,13.97
2023-03-03T18:01:53.802Z,13.53
2023-03-03T18:04:34.229Z,14.57
2023-03-03T18:07:23.352Z,13.13
2023-03-03T18:10:44.394Z,13.10
2023-03-03T18:13:26.110Z,14.20
2023-03-03T18:16:11.906Z,13.83
2023-03-03T18:19:07.311Z,14.68
2023-03-03T18:21:47.486Z,14.18
2023-03-03T18:24:42.868Z,14.88
2023-03-03T18:27:34.865Z,14.68
2023-03-03T18:30:32.140Z,13.38
2023-03-03T18:36:17.510Z,15.70
2023-03-03T18:38:56.817Z,14.68
2023-03-03T18:41:35.970Z,15.15
2023-03-03T18:44:32.765Z,15.03
2023-03-03T18:47:11.707Z,15.00
2023-03-03T18:50:02.677Z,15.73
2023-03-03T18:52:43.636Z,16.83
2023-03-03T18:55:30.058Z,16.77
2023-03-03T18:58:46.458Z,14.68
2023-03-03T19:01:44.492Z,16.60
2023-03-03T19:04:25.038Z,16.50
2023-03-03T19:07:25.210Z,16.27
2023-03-03T19:10:01.920Z,14.82
2023-03-03T19:13:15.322Z,16.90
2023-03-03T19:18:27.272Z,16.65
2023-03-03T19:21:07.275Z,17.80
2023-03-03T19:24:00.321Z,17.75
2023-03-03T19:27:04.079Z,17.27
2023-03-03T19:30:04.396Z,18.50
2023-03-03T19:33:19.398Z,18.23
2023-03-03T19:35:54.794Z,19.45
2023-03-03T19:38:38.033Z,19.90
2023-03-03T19:41:26.934Z,19.00
2023-03-03T19:44:08.810Z,18.65
2023-03-03T19:47:03.721Z,19.80
2023-03-03T19:49:39.413Z,19.35
2023-03-03T19:52:19.717Z,20.23
2023-03-03T19:55:01.567Z,20.67
2023-03-03T19:57:43.454Z,22.40
2023-03-03T20:00:23.935Z,19.88
2023-03-03T20:03:17.510Z,19.90
2023-03-03T20:05:59.605Z,20.17
2023-03-03T20:08:34.906Z,20.30
2023-03-03T20:11:14.176Z,20.73
2023-03-03T20:13:57.420Z,19.77
2023-03-03T20:16:45.638Z,19.97
2023-03-03T20:19:32.924Z,17.75
2023-03-03T20:22:08.645Z,18.23
2023-03-03T20:24:54.323Z,19.50
2023-03-03T20:27:37.032Z,17.58
2023-03-03T20:30:32.016Z,18.55
2023-03-03T20:33:22.203Z,17.00
2023-03-03T20:36:08.841Z,18.13
2023-03-03T20:38:53.382Z,17.55
2023-03-03T20:41:36.516Z,17.25
2023-03-03T20:44:17.071Z,16.25
2023-03-03T20:46:58.354Z,17.33
2023-03-03T20:49:42.636Z,16.75
2023-03-03T20:52:23.824Z,16.63
2023-03-03T20:55:03.886Z,17.98
2023-03-03T20:57:44.138Z,18.15
2023-03-03T21:00:22.066Z,17.80
2023-03-03T21:03:02.990Z,19.65
2023-03-03T21:05:39.583Z,21.05
2023-03-03T21:11:02.566Z,19.35
2023-03-03T21:13:41.611Z,19.42
2023-03-03T21:16:36.043Z,21.90
2023-03-03T21:19:29.733Z,22.30
2023-03-03T21:22:18.194Z,22.85
2023-03-03T21:25:01.489Z,22.33
2023-03-03T21:27:50.855Z,22.73
2023-03-03T21:30:30.635Z,21.75
2023-03-03T21:33:11.413Z,21.00
2023-03-03T21:36:03.976Z,20.35
2023-03-03T21:38:40.196Z,21.52
2023-03-03T21:41:24.294Z,22.90
2023-03-03T21:44:01.531Z,17.85
2023-03-03T21:46:38.510Z,22.13
2023-03-03T21:49:15.927Z,21.85
2023-03-03T21:51:53.628Z,23.20
2023-03-03T21:54:31.247Z,23.53
2023-03-03T21:57:12.412Z,22.55
2023-03-03T21:59:49.540Z,23.95
2023-03-03T22:02:29.758Z,24.97
2023-03-03T22:05:08.241Z,27.23
2023-03-03T22:07:42.868Z,27.88
2023-03-03T22:10:20.928Z,27.95
2023-03-03T22:13:04.532Z,26.60
2023-03-03T22:15:40.326Z,27.80
2023-03-03T22:18:22.766Z,30.45
2023-03-03T22:21:01.265Z,29.10
2023-03-03T22:23:39.062Z,28.70
2023-03-03T22:26:17.616Z,28.00
2023-03-03T22:28:53.402Z,27.25
2023-03-03T22:31:34.692Z,26.90
2023-03-03T22:34:15.309Z,26.45
2023-03-03T22:36:54.057Z,27.03
2023-03-03T22:39:30.766Z,27.13
2023-03-03T22:42:11.370Z,28.15
2023-03-03T22:44:48.837Z,26.80
2023-03-03T22:47:29.908Z,27.63
2023-03-03T22:50:10.179Z,30.67
2023-03-03T22:52:49.060Z,29.63
2023-03-03T22:55:29.786Z,28.08
2023-03-03T22:58:10.137Z,31.23
2023-03-03T23:00:46.305Z,29.65
2023-03-03T23:03:26.942Z,29.20
2023-03-03T23:06:04.980Z,28.40
2023-03-03T23:08:43.439Z,28.20
2023-03-03T23:11:22.231Z,28.20
2023-03-03T23:14:00.796Z,26.73
2023-03-03T23:16:37.937Z,27.52
2023-03-03T23:19:22.298Z,29.02
2023-03-03T23:22:00.784Z,28.83
2023-03-03T23:24:39.007Z,30.48
2023-03-03T23:27:16.807Z,30.20
2023-03-03T23:29:55.918Z,28.63
2023-03-03T23:32:33.462Z,30.17
2023-03-03T23:35:19.247Z,28.83
2023-03-03T23:38:18.148Z,30.20
2023-03-03T23:43:53.724Z,27.92
2023-03-03T23:46:31.227Z,26.95
2023-03-03T23:49:13.029Z,26.48
2023-03-03T23:51:52.561Z,28.40
2023-03-03T23:54:30.433Z,27.13
2023-03-03T23:57:09.192Z,27.13
2023-03-03T23:59:46.633Z,26.70
